Ralph Wien Memorial Airport Kotzebue US
ICAO: PAOT
IATA:
Category: Medium
Scheduled Services:

Elevation: 14 ft
TransAlt. 18000 ft.

Airport Communications:
ASOS:135.45
ATIS:135.45
ANCHORAGE CNTR:119.2
CTAF:123.6
KOTZEBUE RDO:122.2
TWEB:115.7
UNICOM:122.8

PAOT Zoom In..

Runways:

(A) RW 09 length 5900 ft width 150 ft
ILS 110.70 / hdg 87

(B) RW 18 length 3876 ft width 90 ft
---- / hdg 179

(C) RW 27 length 5900 ft width 150 ft
---- / hdg 267

(D) RW 36 length 3876 ft width 90 ft
---- / hdg 359

Location; PAOT
Day. 26 / Time. 13.27 Zulu
* Altimeter: 29.73
* Temperature: 01° c. 33.8°f.
* Wind from: 250° Speed 09 kn.
Dewpoint: 00° c.
Visibility: 1 m.
Clouds: Overcast 300 ft.
Conditions: Mist.

PAOT 261327Z AUTO 25009KT 1 3/4SM R09/6000VP6000FT BR OVC003 01/00 A2973 RMK AO2 T00060000 TSNO


Wind From 250°
Speed 09 kn.

 
 
jpsmedia.com for Web Design SOUNDCLOUD worldairports.se 2018   terms of use